Terminal Aerodrome Forecast
Issued by NWS Shreveport, LA

Home | Current Version | Previous Version | Text Only | Print | Product List | Glossary On
Versions: 1 2 3 4 5 6 7 8 9 10 11 12 13 14 15
000
FTUS44 KSHV 180700 AAA
TAFELD
TAF AMD
KELD 180751Z 1808/1906 05006KT 6SM -RA BR OVC008
      TEMPO 1808/1812 3SM -RA BR OVC004
     FM181200 07004KT 4SM -DZ BR OVC004
     FM181800 08004KT 6SM BR OVC010=

USA.gov is the U.S. government's official web portal to all federal, state and local government web resources and services.